createdAt,value
2023-01-22T00:01:19.083Z,0.00
2023-01-22T00:05:23.753Z,0.00
2023-01-22T00:10:27.260Z,0.00
2023-01-22T00:15:33.535Z,0.00
2023-01-22T00:20:35.987Z,0.00
2023-01-22T00:25:27.538Z,0.00
2023-01-22T00:30:30.729Z,0.00
2023-01-22T00:35:22.162Z,0.00
2023-01-22T00:40:48.362Z,0.00
2023-01-22T00:45:16.993Z,0.00
2023-01-22T00:50:23.103Z,0.00
2023-01-22T00:55:29.426Z,0.00
2023-01-22T01:01:19.968Z,0.00
2023-01-22T01:05:23.522Z,0.00
2023-01-22T01:10:27.812Z,0.00
2023-01-22T01:15:16.432Z,0.00
2023-01-22T01:20:44.169Z,0.00
2023-01-22T01:25:30.614Z,0.00
2023-01-22T01:30:19.993Z,0.00
2023-01-22T01:35:24.408Z,0.00
2023-01-22T01:40:49.798Z,0.00
2023-01-22T01:45:18.635Z,0.00
2023-01-22T01:50:27.036Z,0.00
2023-01-22T01:55:30.803Z,0.00
2023-01-22T02:01:51.098Z,0.00
2023-01-22T02:05:31.706Z,0.00
2023-01-22T02:10:33.010Z,0.00
2023-01-22T02:15:24.925Z,0.00
2023-01-22T02:20:49.484Z,0.00
2023-01-22T02:25:22.756Z,0.00
2023-01-22T02:30:25.288Z,0.00
2023-01-22T02:35:31.216Z,0.00
2023-01-22T02:40:36.881Z,0.00
2023-01-22T02:45:23.557Z,0.00
2023-01-22T02:50:31.655Z,0.00
2023-01-22T02:55:18.581Z,0.00
2023-01-22T03:01:15.541Z,0.00
2023-01-22T03:05:32.320Z,0.00
2023-01-22T03:10:21.871Z,0.00
2023-01-22T03:15:25.056Z,0.00
2023-01-22T03:20:55.679Z,0.00
2023-01-22T03:25:22.736Z,0.00
2023-01-22T03:30:25.804Z,0.00
2023-01-22T03:35:17.103Z,0.00
2023-01-22T03:40:43.797Z,0.00
2023-01-22T03:45:29.198Z,0.00
2023-01-22T03:50:18.443Z,0.00
2023-01-22T03:55:24.285Z,0.00
2023-01-22T04:00:58.025Z,0.00
2023-01-22T04:05:25.733Z,0.00
2023-01-22T04:10:34.686Z,0.00
2023-01-22T04:15:29.369Z,0.00
2023-01-22T04:20:37.340Z,0.00
2023-01-22T04:25:25.800Z,0.00
2023-01-22T04:30:31.791Z,0.00
2023-01-22T04:35:19.387Z,0.00
2023-01-22T04:40:51.759Z,0.00
2023-01-22T04:45:36.155Z,0.00
2023-01-22T04:50:21.772Z,0.00
2023-01-22T04:55:27.845Z,0.00
2023-01-22T05:01:13.116Z,0.00
2023-01-22T05:05:23.541Z,0.00
2023-01-22T05:10:29.888Z,0.00
2023-01-22T05:15:33.852Z,0.00
2023-01-22T05:20:44.443Z,0.00
2023-01-22T05:25:30.230Z,0.00
2023-01-22T05:30:20.632Z,0.00
2023-01-22T05:35:23.183Z,0.00
2023-01-22T05:40:52.031Z,0.00
2023-01-22T05:45:20.569Z,0.00
2023-01-22T05:50:26.509Z,0.00
2023-01-22T05:55:32.751Z,0.00
2023-01-22T06:00:52.995Z,0.00
2023-01-22T06:05:31.342Z,0.00
2023-01-22T06:10:32.093Z,0.00
2023-01-22T06:15:25.595Z,0.00
2023-01-22T06:20:46.343Z,0.00
2023-01-22T06:25:34.959Z,0.00
2023-01-22T06:30:24.717Z,0.00
2023-01-22T06:35:28.024Z,0.00
2023-01-22T06:40:40.408Z,0.00
2023-01-22T06:45:25.049Z,0.00
2023-01-22T06:50:31.311Z,0.00
2023-01-22T06:55:18.354Z,0.00
2023-01-22T07:01:02.719Z,0.00
2023-01-22T07:05:30.940Z,0.00
2023-01-22T07:10:19.274Z,0.21
2023-01-22T07:15:24.824Z,1.54
2023-01-22T07:20:52.183Z,2.75
2023-01-22T07:25:21.608Z,4.16
2023-01-22T07:30:27.932Z,7.79
2023-01-22T07:35:16.651Z,10.70
2023-01-22T07:40:39.108Z,12.72
2023-01-22T07:45:28.820Z,12.89
2023-01-22T07:50:18.206Z,11.61
2023-01-22T07:55:23.087Z,11.25
2023-01-22T08:01:50.399Z,12.14
2023-01-22T08:05:24.858Z,14.24
2023-01-22T08:10:28.705Z,15.16
2023-01-22T08:15:30.088Z,14.79
2023-01-22T08:20:34.633Z,13.99
2023-01-22T08:25:28.629Z,13.41
2023-01-22T08:30:33.875Z,13.71
2023-01-22T08:35:21.678Z,14.95
2023-01-22T08:40:46.243Z,15.57
2023-01-22T08:45:31.322Z,17.36
2023-01-22T08:50:22.523Z,21.06
2023-01-22T08:55:28.552Z,24.38
2023-01-22T09:00:42.424Z,30.07
2023-01-22T09:05:22.971Z,31.74
2023-01-22T09:10:29.060Z,34.10
2023-01-22T09:15:34.953Z,38.74
2023-01-22T09:20:41.056Z,46.81
2023-01-22T09:25:30.010Z,49.94
2023-01-22T09:30:20.667Z,59.00
2023-01-22T09:35:25.963Z,59.96
2023-01-22T09:40:51.062Z,49.85
2023-01-22T09:45:17.802Z,51.92
2023-01-22T09:50:23.902Z,51.98
2023-01-22T09:55:32.245Z,45.58
2023-01-22T10:00:48.013Z,40.45
2023-01-22T10:05:30.887Z,38.61
2023-01-22T10:10:33.484Z,45.46
2023-01-22T10:15:20.074Z,56.57
2023-01-22T10:20:49.544Z,55.59
2023-01-22T10:25:18.153Z,46.53
2023-01-22T10:30:24.236Z,47.80
2023-01-22T10:35:29.669Z,58.72
2023-01-22T10:40:53.991Z,73.92
2023-01-22T10:45:24.609Z,85.36
2023-01-22T10:50:30.690Z,76.36
2023-01-22T10:55:17.655Z,75.68
2023-01-22T11:01:00.587Z,80.42
2023-01-22T11:05:31.354Z,73.77
2023-01-22T11:10:21.024Z,72.08
2023-01-22T11:15:27.078Z,78.80
2023-01-22T11:20:48.135Z,68.57
2023-01-22T11:25:21.275Z,65.67
2023-01-22T11:30:27.804Z,64.79
2023-01-22T11:35:33.331Z,64.62
2023-01-22T11:40:39.905Z,51.39
2023-01-22T11:45:31.305Z,41.97
2023-01-22T11:50:17.898Z,41.38
2023-01-22T11:55:23.440Z,44.72
2023-01-22T12:02:02.649Z,62.73
2023-01-22T12:05:38.857Z,74.88
2023-01-22T12:10:25.202Z,61.66
2023-01-22T12:15:33.978Z,61.82
2023-01-22T12:20:33.758Z,71.59
2023-01-22T12:25:24.698Z,87.53
2023-01-22T12:30:28.691Z,86.88
2023-01-22T12:35:17.656Z,61.27
2023-01-22T12:40:46.969Z,50.98
2023-01-22T12:45:29.810Z,81.18
2023-01-22T12:50:21.214Z,115.39
2023-01-22T12:55:27.045Z,121.83
2023-01-22T13:01:14.611Z,117.50
2023-01-22T13:05:20.497Z,110.74
2023-01-22T13:10:28.229Z,88.96
2023-01-22T13:15:34.392Z,77.67
2023-01-22T13:20:39.657Z,78.66
2023-01-22T13:25:27.439Z,71.89
2023-01-22T13:30:19.629Z,63.97
2023-01-22T13:35:25.502Z,61.44
2023-01-22T13:40:55.476Z,56.76
2023-01-22T13:45:19.657Z,55.07
2023-01-22T13:50:25.641Z,52.22
2023-01-22T13:55:32.016Z,46.59
2023-01-22T14:01:10.360Z,36.90
2023-01-22T14:05:29.228Z,37.04
2023-01-22T14:10:30.807Z,33.88
2023-01-22T14:15:22.112Z,30.62
2023-01-22T14:20:47.335Z,26.93
2023-01-22T14:25:31.820Z,23.00
2023-01-22T14:30:22.569Z,20.58
2023-01-22T14:35:28.428Z,19.55
2023-01-22T14:40:53.711Z,17.85
2023-01-22T14:45:21.095Z,16.17
2023-01-22T14:50:29.185Z,14.85
2023-01-22T14:55:18.299Z,14.09
2023-01-22T15:00:53.709Z,12.64
2023-01-22T15:05:30.346Z,12.19
2023-01-22T15:10:19.584Z,10.25
2023-01-22T15:15:25.385Z,7.81
2023-01-22T15:20:50.765Z,6.30
2023-01-22T15:25:19.739Z,4.64
2023-01-22T15:30:25.705Z,3.36
2023-01-22T15:35:32.143Z,2.20
2023-01-22T15:40:44.619Z,1.15
2023-01-22T15:45:24.701Z,0.28
2023-01-22T15:50:33.861Z,0.00
2023-01-22T15:55:21.999Z,0.00
2023-01-22T16:01:02.560Z,0.00
2023-01-22T16:05:22.357Z,0.00
2023-01-22T16:10:23.600Z,0.00
2023-01-22T16:15:29.513Z,0.00
2023-01-22T16:20:54.498Z,0.00
2023-01-22T16:25:24.220Z,0.00
2023-01-22T16:30:30.411Z,0.00
2023-01-22T16:35:20.131Z,0.00
2023-01-22T16:40:42.964Z,0.00
2023-01-22T16:45:32.309Z,0.00
2023-01-22T16:50:18.699Z,0.00
2023-01-22T16:55:24.427Z,0.00
2023-01-22T17:01:17.882Z,0.00
2023-01-22T17:05:19.187Z,0.00
2023-01-22T17:10:25.345Z,0.00
2023-01-22T17:15:33.399Z,0.00
2023-01-22T17:20:57.419Z,0.00
2023-01-22T17:25:30.715Z,0.00
2023-01-22T17:30:17.475Z,0.00
2023-01-22T17:35:21.583Z,0.00
2023-01-22T17:40:51.165Z,0.00
2023-01-22T17:45:18.748Z,0.00
2023-01-22T17:50:24.298Z,0.00
2023-01-22T17:55:28.286Z,0.00
2023-01-22T18:01:12.080Z,0.00
2023-01-22T18:05:31.454Z,0.00
2023-01-22T18:10:29.762Z,0.00
2023-01-22T18:15:21.747Z,0.00
2023-01-22T18:20:48.873Z,0.00
2023-01-22T18:25:32.708Z,0.00
2023-01-22T18:30:21.620Z,0.00
2023-01-22T18:35:27.955Z,0.00
2023-01-22T18:40:38.396Z,0.00
2023-01-22T18:45:23.541Z,0.00
2023-01-22T18:50:29.903Z,0.00
2023-01-22T18:55:18.413Z,0.00
2023-01-22T19:00:55.241Z,0.00
2023-01-22T19:05:28.305Z,0.00
2023-01-22T19:10:19.205Z,0.00
2023-01-22T19:15:25.192Z,0.00
2023-01-22T19:20:52.546Z,0.00
2023-01-22T19:25:20.684Z,0.00
2023-01-22T19:30:26.223Z,0.00
2023-01-22T19:35:32.668Z,0.00
2023-01-22T19:40:37.695Z,0.00
2023-01-22T19:45:25.372Z,0.00
2023-01-22T19:50:34.209Z,0.00
2023-01-22T19:55:20.977Z,0.00
2023-01-22T20:01:11.961Z,0.00
2023-01-22T20:05:39.662Z,0.00
2023-01-22T20:10:25.551Z,0.00
2023-01-22T20:15:32.145Z,0.00
2023-01-22T20:20:34.232Z,0.00
2023-01-22T20:25:24.193Z,0.00
2023-01-22T20:30:30.205Z,0.00
2023-01-22T20:35:19.649Z,0.00
2023-01-22T20:40:46.090Z,0.00
2023-01-22T20:45:31.215Z,0.00
2023-01-22T20:50:17.924Z,0.00
2023-01-22T20:55:24.162Z,0.00
2023-01-22T21:01:07.971Z,0.00
2023-01-22T21:05:20.924Z,0.00
2023-01-22T21:10:24.866Z,0.00
2023-01-22T21:15:32.678Z,0.00
2023-01-22T21:20:44.891Z,0.00
2023-01-22T21:25:27.440Z,0.00
2023-01-22T21:30:16.739Z,0.00
2023-01-22T21:35:22.658Z,0.00
2023-01-22T21:40:50.375Z,0.00
2023-01-22T21:45:17.651Z,0.00
2023-01-22T21:50:23.840Z,0.00
2023-01-22T21:55:30.657Z,0.00
2023-01-22T22:00:43.413Z,0.00
2023-01-22T22:05:31.616Z,0.00
2023-01-22T22:10:31.631Z,0.00
2023-01-22T22:15:18.299Z,0.00
2023-01-22T22:20:45.526Z,0.00
2023-01-22T22:25:29.840Z,0.00
2023-01-22T22:30:21.303Z,0.00
2023-01-22T22:35:25.107Z,0.00
2023-01-22T22:40:38.915Z,0.00
2023-01-22T22:45:23.013Z,0.00
2023-01-22T22:50:29.313Z,0.00
2023-01-22T22:55:35.115Z,0.00
2023-01-22T23:00:44.738Z,0.00
2023-01-22T23:05:30.185Z,0.00
2023-01-22T23:10:19.260Z,0.00
2023-01-22T23:15:25.436Z,0.00
2023-01-22T23:20:55.815Z,0.00
2023-01-22T23:25:19.588Z,0.00
2023-01-22T23:30:25.573Z,0.00
2023-01-22T23:35:29.423Z,0.00
2023-01-22T23:40:41.616Z,0.00
2023-01-22T23:45:27.640Z,0.00
2023-01-22T23:50:32.750Z,0.00
2023-01-22T23:55:21.731Z,0.00
